Time;durP1;ratioP1;P1;durP2;ratioP2;P2;SDS_P1;SDS_P2;PMS_P1;PMS_P2;Temp;Humidity;BMP_temperature;BMP_pressure;BME280_temperature;BME280_humidity;BME280_pressure;Samples;Min_cycle;Max_cycle;Signal;HPM_P1;HPM_P2
2021/01/05 00:02:07;;;;;;;35.45;17.73;;;2.00;99.90;;;;;;4992009;28;20036;-74
2021/01/05 00:04:33;;;;;;;31.83;16.05;;;2.00;99.90;;;;;;4991620;28;20030;-74
2021/01/05 00:07:04;;;;;;;34.67;16.92;;;2.00;99.90;;;;;;4991331;28;20463;-74
2021/01/05 00:09:29;;;;;;;;;;;2.00;99.90;;;;;;5007530;28;20014;-74
2021/01/05 00:12:04;;;;;;;34.20;17.30;;;2.10;99.90;;;;;;4991387;28;20374;-74
2021/01/05 00:14:30;;;;;;;35.58;17.17;;;2.00;99.90;;;;;;4988844;28;20117;-75
2021/01/05 00:16:56;;;;;;;35.03;17.45;;;2.00;99.90;;;;;;4986780;28;20697;-75
2021/01/05 00:19:22;;;;;;;32.45;17.25;;;2.00;99.90;;;;;;4989589;28;20506;-75
2021/01/05 00:21:49;;;;;;;35.33;17.40;;;2.00;99.90;;;;;;4990192;28;20033;-76
2021/01/05 00:24:15;;;;;;;36.83;17.50;;;2.00;99.90;;;;;;4989559;28;20034;-74
2021/01/05 00:26:40;;;;;;;36.42;18.48;;;2.00;99.90;;;;;;4980036;28;20031;-75
2021/01/05 00:29:07;;;;;;;37.53;18.77;;;2.00;99.90;;;;;;4991916;28;20079;-74
2021/01/05 00:31:33;;;;;;;40.92;19.63;;;2.00;99.90;;;;;;4991450;28;20367;-74
2021/01/05 00:33:58;;;;;;;34.17;18.05;;;2.00;99.90;;;;;;4991818;28;20026;-74
2021/01/05 00:36:24;;;;;;;37.53;18.85;;;2.00;99.90;;;;;;4989306;28;20364;-75
2021/01/05 00:38:49;;;;;;;39.80;17.88;;;2.00;99.90;;;;;;4990037;28;20053;-74
2021/01/05 00:41:15;;;;;;;33.20;16.15;;;2.00;99.90;;;;;;4991481;28;20105;-73
2021/01/05 00:43:42;;;;;;;37.08;19.02;;;2.00;99.90;;;;;;4993580;28;20035;-73
2021/01/05 00:46:09;;;;;;;35.85;18.70;;;1.90;99.90;;;;;;4989803;28;20017;-73
2021/01/05 00:48:35;;;;;;;38.33;19.05;;;1.90;99.90;;;;;;4991215;28;20372;-73
2021/01/05 00:51:00;;;;;;;37.92;19.83;;;1.90;99.90;;;;;;4991277;28;20033;-73
2021/01/05 00:53:26;;;;;;;38.35;19.42;;;1.90;99.90;;;;;;4989214;28;20542;-73
2021/01/05 00:55:51;;;;;;;40.00;20.30;;;1.90;99.90;;;;;;4989378;28;20037;-73
2021/01/05 00:58:18;;;;;;;38.03;18.40;;;1.90;99.90;;;;;;4991036;28;20026;-73
2021/01/05 01:00:43;;;;;;;40.13;18.98;;;1.90;99.90;;;;;;4992151;28;20037;-75
2021/01/05 01:03:09;;;;;;;41.15;19.73;;;1.90;99.90;;;;;;4992080;28;20416;-76
2021/01/05 01:05:35;;;;;;;38.75;19.20;;;1.90;99.90;;;;;;4990152;28;20081;-75
2021/01/05 01:08:00;;;;;;;36.85;18.30;;;1.90;99.90;;;;;;4977574;28;20105;-75
2021/01/05 01:10:25;;;;;;;37.67;18.25;;;1.90;99.90;;;;;;4989770;28;20423;-75
2021/01/05 01:12:51;;;;;;;35.53;17.88;;;1.90;99.90;;;;;;4989606;28;20023;-75
2021/01/05 01:15:17;;;;;;;37.58;19.58;;;1.90;99.90;;;;;;4989110;28;20117;-74
2021/01/05 01:17:42;;;;;;;36.65;18.10;;;1.90;99.90;;;;;;4991379;28;20022;-75
2021/01/05 01:20:09;;;;;;;36.97;17.83;;;1.90;99.90;;;;;;4991351;28;20101;-74
2021/01/05 01:22:35;;;;;;;37.22;16.13;;;1.90;99.90;;;;;;4989762;28;20022;-74
2021/01/05 01:25:01;;;;;;;41.55;19.15;;;1.90;99.90;;;;;;4989912;28;20030;-73
2021/01/05 01:27:26;;;;;;;41.83;18.33;;;1.90;99.90;;;;;;4989303;28;20023;-74
2021/01/05 01:29:52;;;;;;;40.50;18.60;;;1.90;99.90;;;;;;4989786;28;20490;-73
2021/01/05 01:32:17;;;;;;;45.70;20.80;;;2.00;99.90;;;;;;4990368;28;20022;-73
2021/01/05 01:34:43;;;;;;;40.45;19.58;;;1.90;99.90;;;;;;4988871;28;20041;-73
2021/01/05 01:37:11;;;;;;;43.22;20.38;;;2.00;99.90;;;;;;4988434;28;20446;-73
2021/01/05 01:39:39;;;;;;;40.13;18.70;;;2.00;99.90;;;;;;4989176;28;20038;-73
2021/01/05 01:42:07;;;;;;;36.50;18.77;;;2.00;99.90;;;;;;4989281;28;20026;-73
2021/01/05 01:44:35;;;;;;;41.28;20.30;;;2.00;99.90;;;;;;4993243;28;20030;-73
2021/01/05 01:47:14;;;;;;;38.50;19.63;;;2.00;99.90;;;;;;4994175;28;20030;-73
2021/01/05 01:49:40;;;;;;;36.75;19.17;;;2.00;99.90;;;;;;4994460;28;20098;-73
2021/01/05 01:52:08;;;;;;;42.22;19.67;;;2.00;99.90;;;;;;4989940;28;20097;-73
2021/01/05 01:55:13;;;;;;;40.90;18.98;;;2.00;99.90;;;;;;5005921;28;20492;-73
2021/01/05 01:57:49;;;;;;;38.47;18.58;;;2.00;99.90;;;;;;4984629;28;20058;-73
2021/01/05 02:00:27;;;;;;;42.00;20.23;;;2.00;99.90;;;;;;4994515;28;20057;-74
2021/01/05 02:03:24;;;;;;;43.88;20.58;;;2.00;99.90;;;;;;4994758;28;20022;-74
2021/01/05 02:06:22;;;;;;;42.03;20.42;;;1.90;99.90;;;;;;4992817;28;20038;-74
2021/01/05 02:09:08;;;;;;;40.63;20.48;;;1.90;99.90;;;;;;4994462;28;20042;-74
2021/01/05 02:11:51;;;;;;;39.58;18.92;;;2.00;99.90;;;;;;5008984;28;20023;-74
2021/01/05 02:14:54;;;;;;;40.28;20.10;;;1.90;99.90;;;;;;4993462;28;20019;-74
2021/01/05 02:17:28;;;;;;;42.00;19.55;;;1.90;99.90;;;;;;4995514;28;20022;-74
2021/01/05 02:20:00;;;;;;;44.35;19.58;;;1.90;99.90;;;;;;5008159;28;20475;-75
2021/01/05 02:23:01;;;;;;;45.53;19.92;;;1.90;99.90;;;;;;4993594;28;20030;-74
2021/01/05 02:25:27;;;;;;;39.25;18.40;;;1.90;99.90;;;;;;4990107;28;20050;-73
2021/01/05 02:27:59;;;;;;;41.20;18.83;;;1.90;99.90;;;;;;5008358;28;20377;-74
2021/01/05 02:30:32;;;;;;;38.03;18.88;;;1.90;99.90;;;;;;4993515;28;20670;-74
2021/01/05 02:33:16;;;;;;;44.78;21.08;;;1.90;99.90;;;;;;4992240;28;20034;-74
2021/01/05 02:36:09;;;;;;;40.85;19.52;;;1.90;99.90;;;;;;4991697;28;20037;-73
2021/01/05 02:39:01;;;;;;;41.85;19.15;;;1.90;99.90;;;;;;4996291;28;20514;-74
2021/01/05 02:41:30;;;;;;;38.25;20.30;;;2.00;99.90;;;;;;4992012;28;20038;-74
2021/01/05 02:44:24;;;;;;;38.90;19.92;;;2.00;99.90;;;;;;4992793;28;20022;-74
2021/01/05 02:46:53;;;;;;;41.25;19.77;;;1.90;99.90;;;;;;4992632;28;20026;-74
2021/01/05 02:49:45;;;;;;;46.75;20.83;;;1.90;99.90;;;;;;4993196;28;20486;-74
2021/01/05 02:52:51;;;;;;;41.92;20.45;;;2.00;99.90;;;;;;5000667;28;20077;-74
2021/01/05 02:55:47;;;;;;;42.35;19.80;;;2.00;99.90;;;;;;4979429;28;20065;-74
2021/01/05 02:58:31;;;;;;;42.47;20.25;;;2.00;99.90;;;;;;4992542;28;20034;-74
2021/01/05 03:01:29;;;;;;;40.78;19.25;;;2.00;99.90;;;;;;4981188;28;20031;-74
2021/01/05 03:03:56;;;;;;;41.78;19.50;;;2.00;99.90;;;;;;4993375;28;20030;-73
2021/01/05 03:06:28;;;;;;;39.85;19.85;;;2.00;99.90;;;;;;4992656;28;20084;-73
2021/01/05 03:08:59;;;;;;;42.25;19.65;;;1.90;99.90;;;;;;4992577;28;20018;-74
2021/01/05 03:11:41;;;;;;;41.50;21.30;;;2.00;99.90;;;;;;4993298;28;20145;-74
2021/01/05 03:14:26;;;;;;;42.33;19.85;;;2.00;99.90;;;;;;4993340;28;20014;-73
2021/01/05 03:17:10;;;;;;;46.17;21.77;;;1.90;99.90;;;;;;4991694;28;20030;-73
2021/01/05 03:19:58;;;;;;;42.15;20.77;;;1.90;99.90;;;;;;4993233;28;20037;-73
2021/01/05 03:22:28;;;;;;;44.35;21.23;;;2.00;99.90;;;;;;4992918;28;20034;-73
2021/01/05 03:24:55;;;;;;;42.22;20.75;;;2.00;99.90;;;;;;4992147;28;20027;-74
2021/01/05 03:27:22;;;;;;;41.47;19.25;;;1.90;99.90;;;;;;4991529;28;20072;-74
2021/01/05 03:29:50;;;;;;;45.95;20.83;;;2.00;99.90;;;;;;4991778;28;20027;-74
2021/01/05 03:32:16;;;;;;;47.05;20.85;;;1.90;99.90;;;;;;4991834;28;20026;-74
2021/01/05 03:34:41;;;;;;;43.13;20.33;;;2.00;99.90;;;;;;4992533;28;20030;-74
2021/01/05 03:37:07;;;;;;;45.38;21.42;;;2.00;99.90;;;;;;5007823;28;20026;-75
2021/01/05 03:39:32;;;;;;;45.70;20.48;;;2.00;99.90;;;;;;5006670;28;20030;-74
2021/01/05 03:41:58;;;;;;;51.20;22.08;;;1.90;99.90;;;;;;4991937;28;20026;-75
2021/01/05 03:44:23;;;;;;;41.33;20.48;;;2.00;99.90;;;;;;4990361;28;20030;-74
2021/01/05 03:46:49;;;;;;;51.30;19.83;;;2.00;99.90;;;;;;4991771;28;20597;-74
2021/01/05 03:49:14;;;;;;;51.80;21.35;;;2.00;99.90;;;;;;4992092;28;20053;-75
2021/01/05 03:51:40;;;;;;;48.75;20.95;;;2.00;99.90;;;;;;4992266;28;20017;-74
2021/01/05 03:54:05;;;;;;;46.30;21.52;;;2.00;99.90;;;;;;4990303;28;20024;-74
2021/01/05 03:56:31;;;;;;;47.00;19.65;;;2.00;99.90;;;;;;4990875;28;20150;-74
2021/01/05 03:58:56;;;;;;;43.92;20.67;;;1.90;99.90;;;;;;4991626;28;20068;-74
2021/01/05 04:01:22;;;;;;;43.78;20.75;;;1.90;99.90;;;;;;4990357;28;20025;-74
2021/01/05 04:03:47;;;;;;;45.40;20.65;;;1.90;99.90;;;;;;4991627;28;20636;-74
2021/01/05 04:06:13;;;;;;;50.42;20.25;;;1.90;99.90;;;;;;4990087;28;20423;-73
2021/01/05 04:08:38;;;;;;;47.85;21.23;;;2.00;99.90;;;;;;4989663;28;20025;-73
2021/01/05 04:11:04;;;;;;;47.97;20.92;;;1.90;99.90;;;;;;4990465;28;20360;-73
2021/01/05 04:13:30;;;;;;;56.75;22.25;;;1.90;99.90;;;;;;4989939;28;20014;-73
2021/01/05 04:15:55;;;;;;;44.45;19.60;;;1.90;99.90;;;;;;4989929;28;20486;-73
2021/01/05 04:18:21;;;;;;;48.00;20.30;;;1.90;99.90;;;;;;4991015;28;20441;-73
2021/01/05 04:20:46;;;;;;;40.63;19.20;;;1.90;99.90;;;;;;4989953;28;20081;-73
2021/01/05 04:23:12;;;;;;;42.13;18.73;;;1.80;99.90;;;;;;4989283;28;20483;-73
2021/01/05 04:25:37;;;;;;;41.75;19.52;;;1.90;99.90;;;;;;4990787;28;20396;-73
2021/01/05 04:28:03;;;;;;;43.10;19.50;;;1.90;99.90;;;;;;4991338;28;20053;-73
2021/01/05 04:30:33;;;;;;;40.90;17.95;;;1.80;99.90;;;;;;4989576;28;20076;-74
2021/01/05 04:33:02;;;;;;;40.72;21.67;;;1.90;99.90;;;;;;4989752;28;20018;-74
2021/01/05 04:35:28;;;;;;;45.92;21.35;;;1.90;99.90;;;;;;4990639;28;20038;-74
2021/01/05 04:37:54;;;;;;;45.85;19.85;;;1.90;99.90;;;;;;4990922;28;20030;-74
2021/01/05 04:40:34;;;;;;;45.95;19.70;;;1.90;99.90;;;;;;4990556;28;20030;-74
2021/01/05 04:43:33;;;;;;;41.90;18.63;;;1.90;99.90;;;;;;4988652;28;20026;-74
2021/01/05 04:46:14;;;;;;;42.42;19.98;;;1.90;99.90;;;;;;4996149;28;20061;-76
2021/01/05 04:48:56;;;;;;;;;;;1.90;99.90;;;;;;5004746;28;20615;-74
2021/01/05 04:52:00;;;;;;;43.35;18.08;;;1.90;99.90;;;;;;4989036;28;19917;-75
2021/01/05 04:54:31;;;;;;;44.53;20.63;;;1.90;99.90;;;;;;4985089;28;20027;-74
2021/01/05 04:57:12;;;;;;;44.97;19.70;;;1.90;99.90;;;;;;5005138;28;20073;-75
2021/01/05 04:59:53;;;;;;;42.75;20.98;;;1.90;99.90;;;;;;4987749;28;20071;-75
2021/01/05 05:02:29;;;;;;;41.30;18.42;;;1.90;99.90;;;;;;4989948;28;20034;-75
2021/01/05 05:05:24;;;;;;;44.92;19.15;;;1.90;99.90;;;;;;4989381;28;20030;-75
2021/01/05 05:07:50;;;;;;;49.78;20.17;;;1.90;99.90;;;;;;4992315;28;20069;-75
2021/01/05 05:10:26;;;;;;;41.15;19.77;;;1.80;99.90;;;;;;5024057;28;20040;-75
2021/01/05 05:13:13;;;;;;;39.10;18.25;;;1.80;99.90;;;;;;5028124;28;20126;-74
2021/01/05 05:15:53;;;;;;;39.33;17.45;;;1.80;99.90;;;;;;4978690;28;20480;-74
2021/01/05 05:18:24;;;;;;;42.67;18.38;;;1.80;99.90;;;;;;4957210;28;20058;-74
2021/01/05 05:21:13;;;;;;;39.50;18.60;;;1.80;99.90;;;;;;4918981;29;20118;-74
2021/01/05 05:24:13;;;;;;;39.53;18.67;;;1.80;99.90;;;;;;4845602;29;20047;-74
2021/01/05 05:27:17;;;;;;;41.42;16.92;;;1.80;99.90;;;;;;4620951;30;20599;-73
2021/01/05 05:29:47;;;;;;;46.38;18.23;;;1.80;99.90;;;;;;4450491;31;20047;-74
2021/01/05 05:33:33;;;;;;;43.88;20.15;;;1.90;99.90;;;;;;5168522;27;20129;-45
2021/01/05 05:36:39;;;;;;;44.97;20.88;;;1.90;99.90;;;;;;5167487;27;20414;-46
2021/01/05 05:39:41;;;;;;;45.17;20.58;;;1.90;99.90;;;;;;5096909;27;20431;-47
2021/01/05 05:42:38;;;;;;;58.30;20.88;;;1.90;99.90;;;;;;5041708;28;20113;-48
2021/01/05 05:45:13;;;;;;;55.55;20.25;;;1.90;99.90;;;;;;4927422;28;20064;-45
2021/01/05 05:47:47;;;;;;;52.15;21.30;;;1.90;99.90;;;;;;4867035;29;20042;-46
2021/01/05 05:50:34;;;;;;;46.75;20.05;;;1.90;99.90;;;;;;4841360;29;20041;-45
2021/01/05 05:54:28;;;;;;;62.20;23.60;;;1.90;99.90;;;;;;5085242;27;20417;-46
2021/01/05 05:57:09;;;;;;;53.95;21.98;;;1.90;99.90;;;;;;5081989;28;20028;-46
2021/01/05 05:59:50;;;;;;;54.65;23.42;;;1.90;99.90;;;;;;5084438;28;20031;-46
2021/01/05 06:02:19;;;;;;;63.80;22.20;;;2.00;99.90;;;;;;5082997;28;20027;-48
2021/01/05 06:04:44;;;;;;;55.28;23.13;;;1.90;99.90;;;;;;5079894;28;20095;-46
2021/01/05 06:07:10;;;;;;;58.50;23.73;;;1.90;99.90;;;;;;5083296;28;20481;-47
2021/01/05 06:09:35;;;;;;;61.17;24.60;;;1.90;99.90;;;;;;5080128;28;20025;-46
2021/01/05 06:12:01;;;;;;;57.80;23.85;;;1.90;99.90;;;;;;5093806;28;20028;-46
2021/01/05 06:14:29;;;;;;;56.15;23.05;;;2.00;99.90;;;;;;5077583;28;20032;-45
2021/01/05 06:16:55;;;;;;;57.03;23.17;;;2.00;99.90;;;;;;5065657;28;20512;-46
2021/01/05 06:19:20;;;;;;;56.08;23.77;;;2.00;99.90;;;;;;5065203;28;20028;-47
2021/01/05 06:21:46;;;;;;;61.13;25.02;;;2.00;99.90;;;;;;5073161;28;20469;-47
2021/01/05 06:24:11;;;;;;;48.22;22.17;;;1.90;99.90;;;;;;5065207;28;20502;-46
2021/01/05 06:26:36;;;;;;;48.03;22.33;;;2.00;99.90;;;;;;5064410;28;20036;-48
2021/01/05 06:29:02;;;;;;;57.70;22.95;;;2.00;99.90;;;;;;5063509;28;20027;-47
2021/01/05 06:31:27;;;;;;;54.67;22.02;;;2.00;99.90;;;;;;5064858;28;20028;-47
2021/01/05 06:33:53;;;;;;;58.35;23.08;;;2.00;99.90;;;;;;5064687;28;20508;-47
2021/01/05 06:36:18;;;;;;;54.15;24.48;;;2.00;99.90;;;;;;5064500;28;20109;-46
2021/01/05 06:38:44;;;;;;;60.60;24.15;;;2.10;99.90;;;;;;5065255;28;20059;-46
2021/01/05 06:41:09;;;;;;;60.42;22.13;;;2.10;99.90;;;;;;5063029;28;20028;-46
2021/01/05 06:43:35;;;;;;;52.83;23.00;;;2.10;99.90;;;;;;5070443;28;20127;-47
2021/01/05 06:46:00;;;;;;;51.00;22.33;;;2.10;99.90;;;;;;5068151;28;20504;-45
2021/01/05 06:48:26;;;;;;;52.28;22.55;;;2.10;99.90;;;;;;5063914;28;20032;-47
2021/01/05 06:50:51;;;;;;;54.45;21.95;;;2.10;99.90;;;;;;5065412;28;20509;-47
2021/01/05 06:53:17;;;;;;;52.50;23.65;;;2.10;99.90;;;;;;5100365;28;20032;-46
2021/01/05 06:55:42;;;;;;;49.00;20.75;;;2.10;99.90;;;;;;5077203;28;20462;-47
2021/01/05 06:58:08;;;;;;;52.33;21.75;;;2.10;99.90;;;;;;5084484;28;20054;-47
2021/01/05 07:00:33;;;;;;;51.38;22.88;;;2.10;99.90;;;;;;5084659;28;20078;-48
2021/01/05 07:02:59;;;;;;;49.25;21.38;;;2.10;99.90;;;;;;5094966;28;20090;-47
2021/01/05 07:05:25;;;;;;;48.78;21.08;;;2.10;99.90;;;;;;5052908;28;20040;-46
2021/01/05 07:07:51;;;;;;;48.20;22.00;;;2.10;99.90;;;;;;5065712;28;20541;-46
2021/01/05 07:10:19;;;;;;;47.15;18.80;;;2.10;99.90;;;;;;5071336;28;20082;-47
2021/01/05 07:12:46;;;;;;;50.97;20.30;;;2.10;99.90;;;;;;5063064;28;20044;-46
2021/01/05 07:15:15;;;;;;;47.97;20.40;;;2.20;99.90;;;;;;5062842;28;20085;-47
2021/01/05 07:17:40;;;;;;;51.33;21.23;;;2.20;99.90;;;;;;5052186;28;20134;-48
2021/01/05 07:20:08;;;;;;;47.03;18.90;;;2.10;99.90;;;;;;5058817;28;20016;-46
2021/01/05 07:22:33;;;;;;;48.78;19.67;;;2.20;99.90;;;;;;5070965;28;20020;-50
2021/01/05 07:24:59;;;;;;;55.60;21.17;;;2.10;99.90;;;;;;5070466;28;20042;-46
2021/01/05 07:27:24;;;;;;;44.55;19.15;;;2.20;99.90;;;;;;5070413;28;20527;-46
2021/01/05 07:29:50;;;;;;;46.20;20.02;;;2.20;99.90;;;;;;5079859;28;20025;-46
2021/01/05 07:32:15;;;;;;;47.42;20.17;;;2.30;99.90;;;;;;5050465;28;20028;-46
2021/01/05 07:34:41;;;;;;;46.55;19.20;;;2.30;99.90;;;;;;5066507;28;20043;-49
2021/01/05 07:37:11;;;;;;;48.55;19.90;;;2.20;99.90;;;;;;5069334;28;20017;-49
2021/01/05 07:39:37;;;;;;;42.80;19.70;;;2.20;99.90;;;;;;5070512;28;20417;-47
2021/01/05 07:42:25;;;;;;;39.95;18.85;;;2.30;99.90;;;;;;5069235;28;20035;-47
2021/01/05 07:44:52;;;;;;;44.17;19.00;;;2.30;99.90;;;;;;5041407;28;20020;-47
2021/01/05 07:47:20;;;;;;;38.85;17.30;;;2.30;99.90;;;;;;5065630;28;20457;-47
2021/01/05 07:49:45;;;;;;;40.35;18.90;;;2.20;99.90;;;;;;5066852;28;20086;-47
2021/01/05 07:52:18;;;;;;;45.58;18.48;;;2.30;99.90;;;;;;5084558;28;20501;-46
2021/01/05 07:54:44;;;;;;;43.75;20.50;;;2.30;99.90;;;;;;5065172;28;20047;-46
2021/01/05 07:57:09;;;;;;;37.85;18.70;;;2.30;99.90;;;;;;5079977;28;20536;-47
2021/01/05 07:59:35;;;;;;;39.88;19.48;;;2.30;99.90;;;;;;5053392;28;20021;-46
2021/01/05 08:02:00;;;;;;;45.70;19.42;;;2.30;99.90;;;;;;5049831;28;20052;-47
2021/01/05 08:04:26;;;;;;;45.42;20.00;;;2.30;99.90;;;;;;5056933;28;20037;-46
2021/01/05 08:06:51;;;;;;;45.85;20.95;;;2.30;99.90;;;;;;5049959;28;20029;-46
2021/01/05 08:09:17;;;;;;;47.97;21.25;;;2.30;99.90;;;;;;5049553;28;20108;-46
2021/01/05 08:11:42;;;;;;;51.55;21.27;;;2.40;99.90;;;;;;5049285;28;20025;-46
2021/01/05 08:14:07;;;;;;;54.65;22.67;;;2.30;99.90;;;;;;5049475;28;20021;-47
2021/01/05 08:16:33;;;;;;;51.42;22.35;;;2.30;99.90;;;;;;5048203;28;20481;-46
2021/01/05 08:18:59;;;;;;;60.25;23.63;;;2.30;99.90;;;;;;5050047;28;20500;-46
2021/01/05 08:21:26;;;;;;;62.53;24.92;;;2.30;99.90;;;;;;5065955;28;20360;-47
2021/01/05 08:23:52;;;;;;;60.03;22.83;;;2.30;99.90;;;;;;5064113;28;20029;-46
2021/01/05 08:26:18;;;;;;;59.50;22.45;;;2.30;99.90;;;;;;5061348;28;20025;-49
2021/01/05 08:28:45;;;;;;;64.35;24.50;;;2.30;99.90;;;;;;5066274;28;20469;-47
2021/01/05 08:31:13;;;;;;;63.67;23.55;;;2.20;99.90;;;;;;5071153;28;20440;-47
2021/01/05 08:33:40;;;;;;;65.75;23.55;;;2.30;99.90;;;;;;5064831;28;20481;-48
2021/01/05 08:36:06;;;;;;;67.75;23.08;;;2.30;99.90;;;;;;5061377;28;20533;-47
2021/01/05 08:38:31;;;;;;;64.07;22.60;;;2.30;99.90;;;;;;5066920;28;20394;-47
2021/01/05 08:40:57;;;;;;;62.47;23.80;;;2.30;99.90;;;;;;5066380;28;20031;-47
2021/01/05 08:43:22;;;;;;;63.92;23.48;;;2.30;99.90;;;;;;5063541;28;20028;-47
2021/01/05 08:45:48;;;;;;;65.43;25.27;;;2.30;99.90;;;;;;5066268;28;20029;-49
2021/01/05 08:48:14;;;;;;;60.22;23.17;;;2.40;99.90;;;;;;5066599;28;20025;-48
2021/01/05 08:50:41;;;;;;;65.75;23.42;;;2.40;99.90;;;;;;5063170;28;20083;-47
2021/01/05 08:53:09;;;;;;;60.53;24.52;;;2.40;99.90;;;;;;5063386;28;20025;-47
2021/01/05 08:55:37;;;;;;;53.75;22.13;;;2.40;99.90;;;;;;5078000;28;20020;-49
2021/01/05 08:58:04;;;;;;;65.28;23.85;;;2.40;99.90;;;;;;5053122;28;20027;-49
2021/01/05 09:00:29;;;;;;;57.60;24.50;;;2.40;99.90;;;;;;5047807;28;20020;-46
2021/01/05 09:02:55;;;;;;;60.22;23.30;;;2.40;99.90;;;;;;5058100;28;20016;-48
2021/01/05 09:05:20;;;;;;;57.28;22.73;;;2.40;99.90;;;;;;5066555;28;20073;-47
2021/01/05 09:07:46;;;;;;;55.78;22.08;;;2.40;99.90;;;;;;5067878;28;20043;-48
2021/01/05 09:10:23;;;;;;;55.75;21.17;;;2.40;99.90;;;;;;5064195;28;20546;-46
2021/01/05 09:12:48;;;;;;;52.50;21.15;;;2.40;99.90;;;;;;5064712;28;20059;-46
2021/01/05 09:15:18;;;;;;;52.85;21.55;;;2.40;99.90;;;;;;5067173;28;20056;-47
2021/01/05 09:17:48;;;;;;;58.38;21.92;;;2.40;99.90;;;;;;5065908;28;20016;-47
2021/01/05 09:20:24;;;;;;;55.13;20.27;;;2.40;99.90;;;;;;5064069;28;20050;-49
2021/01/05 09:22:52;;;;;;;57.95;21.17;;;2.30;99.90;;;;;;5063184;28;20498;-46
2021/01/05 09:25:18;;;;;;;56.95;21.13;;;2.40;99.90;;;;;;5064092;28;20028;-47
2021/01/05 09:27:43;;;;;;;53.15;21.90;;;2.40;99.90;;;;;;5079792;28;20017;-46
2021/01/05 09:30:13;;;;;;;59.72;22.23;;;2.40;99.90;;;;;;5067220;28;20095;-49
2021/01/05 09:32:39;;;;;;;58.42;20.42;;;2.50;99.90;;;;;;5064937;28;20016;-46
2021/01/05 09:35:05;;;;;;;52.35;20.77;;;2.50;99.90;;;;;;5063711;28;20074;-47
2021/01/05 09:37:31;;;;;;;51.40;21.88;;;2.50;99.90;;;;;;5051432;28;20025;-47
2021/01/05 09:39:57;;;;;;;53.45;20.85;;;2.50;99.90;;;;;;5049697;28;20025;-46
2021/01/05 09:42:23;;;;;;;51.80;20.65;;;2.60;99.90;;;;;;5054480;28;20497;-46
2021/01/05 09:44:49;;;;;;;49.42;19.75;;;2.60;99.90;;;;;;5059522;28;20039;-46
2021/01/05 09:47:21;;;;;;;50.10;19.50;;;2.60;99.90;;;;;;5062976;28;20024;-49
2021/01/05 09:49:50;;;;;;;51.08;20.52;;;2.60;99.90;;;;;;5065201;28;20020;-47
2021/01/05 09:52:17;;;;;;;55.60;21.75;;;2.60;99.90;;;;;;5066397;28;20021;-49
2021/01/05 09:54:47;;;;;;;53.58;20.15;;;2.60;99.90;;;;;;5065221;28;20492;-48
2021/01/05 09:57:13;;;;;;;50.97;22.65;;;2.60;99.90;;;;;;5063320;28;20036;-46
2021/01/05 09:59:39;;;;;;;52.92;22.25;;;2.60;99.90;;;;;;5064376;28;20017;-47
2021/01/05 10:02:05;;;;;;;49.22;20.67;;;2.70;99.90;;;;;;5062289;28;20028;-49
2021/01/05 10:04:30;;;;;;;49.50;20.98;;;2.70;99.90;;;;;;5061591;28;20087;-46
2021/01/05 10:06:56;;;;;;;42.58;18.75;;;2.70;99.90;;;;;;5058575;28;20017;-46
2021/01/05 10:09:21;;;;;;;42.63;19.05;;;2.70;99.90;;;;;;5048116;28;20610;-45
2021/01/05 10:11:47;;;;;;;49.08;18.77;;;2.70;99.90;;;;;;5047333;28;20116;-46
2021/01/05 10:14:16;;;;;;;43.47;18.15;;;2.70;99.90;;;;;;5049340;28;20035;-47
2021/01/05 10:16:42;;;;;;;43.67;20.13;;;2.70;99.90;;;;;;5047695;28;20465;-47
2021/01/05 10:19:10;;;;;;;45.72;18.83;;;2.70;99.90;;;;;;5048775;28;20037;-45
2021/01/05 10:21:38;;;;;;;42.33;18.67;;;2.70;99.90;;;;;;5046847;28;20023;-47
2021/01/05 10:24:05;;;;;;;38.13;18.75;;;2.70;99.90;;;;;;5048156;28;20035;-46
2021/01/05 10:26:31;;;;;;;42.13;19.55;;;2.70;99.90;;;;;;5047408;28;20029;-47
2021/01/05 10:29:00;;;;;;;42.75;20.38;;;2.70;99.90;;;;;;5047872;28;20025;-50
2021/01/05 10:31:34;;;;;;;36.83;18.60;;;2.80;99.90;;;;;;5048251;28;20040;-47
2021/01/05 10:34:00;;;;;;;41.50;18.85;;;2.80;99.90;;;;;;5048029;28;20032;-47
2021/01/05 10:36:25;;;;;;;42.25;19.52;;;2.80;99.90;;;;;;5047543;28;20074;-47
2021/01/05 10:38:51;;;;;;;37.47;17.98;;;2.80;99.90;;;;;;5048181;28;20053;-47
2021/01/05 10:41:17;;;;;;;44.17;18.42;;;2.80;99.90;;;;;;5051426;28;20025;-49
2021/01/05 10:43:44;;;;;;;41.17;18.00;;;2.90;99.90;;;;;;5070498;28;20044;-47
2021/01/05 10:46:09;;;;;;;36.13;18.08;;;2.90;99.90;;;;;;5068755;28;20073;-49
2021/01/05 10:48:35;;;;;;;32.08;15.75;;;2.80;99.90;;;;;;5067769;28;20108;-47
2021/01/05 10:51:01;;;;;;;36.08;17.00;;;2.80;99.90;;;;;;5068372;28;20529;-47
2021/01/05 10:53:28;;;;;;;39.20;17.42;;;2.80;99.90;;;;;;5040011;28;20028;-47
2021/01/05 10:55:54;;;;;;;39.03;18.17;;;2.80;99.90;;;;;;5067087;28;20120;-50
2021/01/05 10:58:19;;;;;;;40.20;17.45;;;2.80;99.90;;;;;;5065935;28;20655;-48
2021/01/05 11:00:45;;;;;;;36.13;18.70;;;2.90;99.90;;;;;;5071205;28;20012;-48
2021/01/05 11:03:10;;;;;;;37.15;18.30;;;2.90;99.90;;;;;;5071060;28;20110;-48
2021/01/05 11:05:36;;;;;;;32.90;17.38;;;2.90;99.90;;;;;;5069418;28;20123;-48
2021/01/05 11:08:02;;;;;;;38.97;18.45;;;2.90;99.90;;;;;;5071695;28;20029;-47
2021/01/05 11:10:27;;;;;;;31.75;16.10;;;2.90;99.90;;;;;;5054390;28;20084;-48
2021/01/05 11:12:58;;;;;;;33.40;16.92;;;3.00;99.90;;;;;;5058254;28;20044;-49
2021/01/05 11:15:24;;;;;;;37.40;18.42;;;3.00;99.90;;;;;;5070478;28;20116;-48
2021/01/05 11:17:50;;;;;;;37.45;18.33;;;3.00;99.90;;;;;;5070886;28;20096;-49
2021/01/05 11:20:16;;;;;;;34.42;17.58;;;3.00;99.90;;;;;;5070885;28;20116;-48
2021/01/05 11:22:42;;;;;;;32.33;15.88;;;3.00;99.90;;;;;;5078897;28;20039;-48
2021/01/05 11:25:12;;;;;;;33.88;15.52;;;3.00;99.90;;;;;;5062101;28;20095;-48
2021/01/05 11:27:37;;;;;;;29.15;15.93;;;3.10;99.90;;;;;;5070859;28;20153;-49
2021/01/05 11:30:04;;;;;;;29.98;16.15;;;3.10;99.90;;;;;;5070724;28;20040;-48
2021/01/05 11:32:29;;;;;;;30.10;15.90;;;3.20;99.90;;;;;;5070705;28;20029;-48
2021/01/05 11:34:55;;;;;;;35.85;16.92;;;3.20;99.90;;;;;;5070193;28;20112;-48
2021/01/05 11:37:21;;;;;;;29.50;16.45;;;3.10;99.90;;;;;;5065691;28;20048;-48
2021/01/05 11:39:48;;;;;;;29.48;15.75;;;3.20;99.90;;;;;;5050540;28;20162;-48
2021/01/05 11:42:17;;;;;;;29.92;15.85;;;3.20;99.90;;;;;;5049619;28;20060;-49
2021/01/05 11:44:44;;;;;;;28.85;16.00;;;3.20;99.90;;;;;;5049889;28;20033;-48
2021/01/05 11:47:11;;;;;;;24.38;13.98;;;3.20;99.90;;;;;;5050647;28;20023;-48
2021/01/05 11:49:36;;;;;;;27.27;14.60;;;3.20;99.90;;;;;;5050454;28;20142;-51
2021/01/05 11:52:02;;;;;;;22.80;13.85;;;3.20;99.90;;;;;;5049928;28;20111;-49
2021/01/05 11:54:28;;;;;;;26.92;14.40;;;3.20;99.90;;;;;;5049792;28;20032;-51
2021/01/05 11:56:57;;;;;;;31.73;15.43;;;3.30;99.90;;;;;;5067483;28;20027;-49
2021/01/05 11:59:23;;;;;;;30.77;16.42;;;3.30;99.90;;;;;;5080353;28;20542;-48
2021/01/05 12:01:49;;;;;;;26.98;14.65;;;3.30;99.90;;;;;;5059441;28;20017;-48
2021/01/05 12:04:15;;;;;;;27.23;14.35;;;3.30;99.90;;;;;;5070199;28;20509;-51
2021/01/05 12:06:55;;;;;;;27.40;13.35;;;3.40;99.90;;;;;;5066861;28;20036;-49
2021/01/05 12:09:22;;;;;;;23.70;13.38;;;3.30;99.90;;;;;;5059442;28;20028;-48
2021/01/05 12:11:53;;;;;;;25.92;14.07;;;3.30;99.90;;;;;;5066050;28;20373;-48
2021/01/05 12:14:19;;;;;;;;;;;3.30;99.90;;;;;;5065096;28;20380;-50
2021/01/05 12:16:48;;;;;;;23.80;13.30;;;3.20;99.90;;;;;;5060035;28;19908;-51
2021/01/05 12:19:23;;;;;;;22.30;13.10;;;3.20;99.90;;;;;;5068595;28;20493;-49
2021/01/05 12:21:48;;;;;;;27.17;13.82;;;3.30;99.90;;;;;;5049679;28;20163;-48
2021/01/05 12:24:18;;;;;;;29.55;15.57;;;3.20;99.90;;;;;;5060979;28;20473;-50
2021/01/05 12:26:45;;;;;;;24.10;13.80;;;3.20;99.90;;;;;;5069317;28;20029;-48
2021/01/05 12:29:15;;;;;;;27.73;14.35;;;3.20;99.90;;;;;;5069661;28;20657;-49
2021/01/05 12:31:44;;;;;;;27.33;15.02;;;3.20;99.90;;;;;;5057680;28;20118;-47
2021/01/05 12:34:11;;;;;;;21.90;13.60;;;3.20;99.90;;;;;;5064989;28;20028;-47
2021/01/05 12:36:38;;;;;;;25.52;13.70;;;3.20;99.90;;;;;;5068572;28;20591;-47
2021/01/05 12:39:06;;;;;;;25.17;13.38;;;3.20;99.90;;;;;;5069268;28;20036;-49
2021/01/05 12:41:38;;;;;;;22.30;12.45;;;3.20;99.90;;;;;;5069205;28;20075;-48
2021/01/05 12:44:05;;;;;;;22.95;13.98;;;3.20;99.90;;;;;;5065408;28;20031;-49
2021/01/05 12:46:35;;;;;;;25.92;13.90;;;3.20;99.90;;;;;;5068669;28;20037;-47
2021/01/05 12:49:01;;;;;;;21.20;12.88;;;3.20;99.90;;;;;;5059090;28;20093;-47
2021/01/05 12:51:38;;;;;;;23.50;13.13;;;3.20;99.90;;;;;;5040439;28;20025;-47
2021/01/05 12:54:08;;;;;;;20.73;11.50;;;3.20;99.90;;;;;;5058207;28;20401;-47
2021/01/05 12:56:35;;;;;;;20.75;12.02;;;3.30;99.90;;;;;;5063575;28;20021;-47